sensor_id;sensor_type;location;lat;lon;timestamp;temperature;humidity
19256;DHT22;9762;52.490;13.410;2022-11-25T00:01:22;9.20;99.10
19256;DHT22;9762;52.490;13.410;2022-11-25T00:03:50;9.30;99.10
19256;DHT22;9762;52.490;13.410;2022-11-25T00:08:46;9.30;99.10
19256;DHT22;9762;52.490;13.410;2022-11-25T00:11:13;9.30;98.90
19256;DHT22;9762;52.490;13.410;2022-11-25T00:13:39;9.20;98.90
19256;DHT22;9762;52.490;13.410;2022-11-25T00:16:14;9.20;98.90
19256;DHT22;9762;52.490;13.410;2022-11-25T00:18:43;9.20;98.90
19256;DHT22;9762;52.490;13.410;2022-11-25T00:21:13;9.20;99.00
19256;DHT22;9762;52.490;13.410;2022-11-25T00:23:39;9.20;99.00
19256;DHT22;9762;52.490;13.410;2022-11-25T00:26:15;9.20;99.00
19256;DHT22;9762;52.490;13.410;2022-11-25T00:28:42;9.20;99.50
19256;DHT22;9762;52.490;13.410;2022-11-25T00:31:14;9.20;99.20
19256;DHT22;9762;52.490;13.410;2022-11-25T00:33:40;9.20;99.20
19256;DHT22;9762;52.490;13.410;2022-11-25T00:36:18;9.20;99.20
19256;DHT22;9762;52.490;13.410;2022-11-25T00:38:44;9.20;99.10
19256;DHT22;9762;52.490;13.410;2022-11-25T00:41:10;9.20;99.20
19256;DHT22;9762;52.490;13.410;2022-11-25T00:43:54;9.20;99.20
19256;DHT22;9762;52.490;13.410;2022-11-25T00:46:39;9.30;99.20
19256;DHT22;9762;52.490;13.410;2022-11-25T00:49:04;9.20;99.20
19256;DHT22;9762;52.490;13.410;2022-11-25T00:51:30;9.20;99.20
19256;DHT22;9762;52.490;13.410;2022-11-25T00:53:55;9.20;99.30
19256;DHT22;9762;52.490;13.410;2022-11-25T00:56:21;9.20;99.30
19256;DHT22;9762;52.490;13.410;2022-11-25T00:58:48;9.20;99.40
19256;DHT22;9762;52.490;13.410;2022-11-25T01:01:13;9.20;99.20
19256;DHT22;9762;52.490;13.410;2022-11-25T01:03:39;9.20;99.30
19256;DHT22;9762;52.490;13.410;2022-11-25T01:06:09;9.10;99.40
19256;DHT22;9762;52.490;13.410;2022-11-25T01:08:36;9.10;99.40
19256;DHT22;9762;52.490;13.410;2022-11-25T01:11:09;9.10;99.50
19256;DHT22;9762;52.490;13.410;2022-11-25T01:13:35;9.10;99.50
19256;DHT22;9762;52.490;13.410;2022-11-25T01:16:02;9.10;99.40
19256;DHT22;9762;52.490;13.410;2022-11-25T01:18:28;9.10;99.50
19256;DHT22;9762;52.490;13.410;2022-11-25T01:20:54;9.10;99.60
19256;DHT22;9762;52.490;13.410;2022-11-25T01:23:19;9.10;99.60
19256;DHT22;9762;52.490;13.410;2022-11-25T01:25:45;9.10;99.70
19256;DHT22;9762;52.490;13.410;2022-11-25T01:28:10;9.10;99.80
19256;DHT22;9762;52.490;13.410;2022-11-25T01:30:38;9.10;99.70
19256;DHT22;9762;52.490;13.410;2022-11-25T01:33:04;9.10;99.70
19256;DHT22;9762;52.490;13.410;2022-11-25T01:35:30;9.20;99.80
19256;DHT22;9762;52.490;13.410;2022-11-25T01:37:55;9.20;99.80
19256;DHT22;9762;52.490;13.410;2022-11-25T01:40:21;9.20;99.80
19256;DHT22;9762;52.490;13.410;2022-11-25T01:42:47;9.20;99.80
19256;DHT22;9762;52.490;13.410;2022-11-25T01:47:49;9.30;99.80
19256;DHT22;9762;52.490;13.410;2022-11-25T01:50:17;9.20;99.70
19256;DHT22;9762;52.490;13.410;2022-11-25T01:52:46;9.30;99.80
19256;DHT22;9762;52.490;13.410;2022-11-25T01:55:41;9.30;99.80
19256;DHT22;9762;52.490;13.410;2022-11-25T01:58:15;9.30;99.80
19256;DHT22;9762;52.490;13.410;2022-11-25T02:00:42;9.30;99.70
19256;DHT22;9762;52.490;13.410;2022-11-25T02:03:21;9.30;99.70
19256;DHT22;9762;52.490;13.410;2022-11-25T02:08:13;9.40;99.70
19256;DHT22;9762;52.490;13.410;2022-11-25T02:10:41;9.30;99.70
19256;DHT22;9762;52.490;13.410;2022-11-25T02:13:08;9.40;99.70
19256;DHT22;9762;52.490;13.410;2022-11-25T02:15:34;9.40;99.80
19256;DHT22;9762;52.490;13.410;2022-11-25T02:18:00;9.40;99.80
19256;DHT22;9762;52.490;13.410;2022-11-25T02:20:26;9.40;99.80
19256;DHT22;9762;52.490;13.410;2022-11-25T02:25:50;9.40;99.70
19256;DHT22;9762;52.490;13.410;2022-11-25T02:28:22;9.40;99.70
19256;DHT22;9762;52.490;13.410;2022-11-25T02:30:49;9.50;99.70
19256;DHT22;9762;52.490;13.410;2022-11-25T02:33:15;9.50;99.70
19256;DHT22;9762;52.490;13.410;2022-11-25T02:35:42;9.50;99.70
19256;DHT22;9762;52.490;13.410;2022-11-25T02:38:19;9.50;99.70
19256;DHT22;9762;52.490;13.410;2022-11-25T02:41:09;9.50;99.60
19256;DHT22;9762;52.490;13.410;2022-11-25T02:43:36;9.50;99.60
19256;DHT22;9762;52.490;13.410;2022-11-25T02:46:11;9.50;99.50
19256;DHT22;9762;52.490;13.410;2022-11-25T02:48:38;9.50;99.50
19256;DHT22;9762;52.490;13.410;2022-11-25T02:51:05;9.40;99.60
19256;DHT22;9762;52.490;13.410;2022-11-25T02:53:31;9.40;99.60
19256;DHT22;9762;52.490;13.410;2022-11-25T02:55:58;9.40;99.70
19256;DHT22;9762;52.490;13.410;2022-11-25T02:58:23;9.40;99.80
19256;DHT22;9762;52.490;13.410;2022-11-25T03:00:49;9.40;99.80
19256;DHT22;9762;52.490;13.410;2022-11-25T03:03:15;9.30;99.80
19256;DHT22;9762;52.490;13.410;2022-11-25T03:05:41;9.30;99.70
19256;DHT22;9762;52.490;13.410;2022-11-25T03:08:07;9.30;99.90
19256;DHT22;9762;52.490;13.410;2022-11-25T03:10:33;9.30;99.90
19256;DHT22;9762;52.490;13.410;2022-11-25T03:12:59;9.30;99.90
19256;DHT22;9762;52.490;13.410;2022-11-25T03:15:24;9.20;99.90
19256;DHT22;9762;52.490;13.410;2022-11-25T03:17:51;9.30;99.90
19256;DHT22;9762;52.490;13.410;2022-11-25T03:20:17;9.30;99.90
19256;DHT22;9762;52.490;13.410;2022-11-25T03:22:43;9.20;99.80
19256;DHT22;9762;52.490;13.410;2022-11-25T03:25:10;9.20;99.70
19256;DHT22;9762;52.490;13.410;2022-11-25T03:27:36;9.10;99.70
19256;DHT22;9762;52.490;13.410;2022-11-25T03:30:04;9.00;99.80
19256;DHT22;9762;52.490;13.410;2022-11-25T03:32:30;9.00;99.90
19256;DHT22;9762;52.490;13.410;2022-11-25T03:34:55;8.90;99.90
19256;DHT22;9762;52.490;13.410;2022-11-25T03:37:21;8.90;99.90
19256;DHT22;9762;52.490;13.410;2022-11-25T03:39:47;8.90;99.90
19256;DHT22;9762;52.490;13.410;2022-11-25T03:42:12;8.90;99.90
19256;DHT22;9762;52.490;13.410;2022-11-25T03:44:38;8.90;99.90
19256;DHT22;9762;52.490;13.410;2022-11-25T03:47:05;8.90;99.90
19256;DHT22;9762;52.490;13.410;2022-11-25T03:49:31;8.90;99.90
19256;DHT22;9762;52.490;13.410;2022-11-25T03:51:57;8.90;99.90
19256;DHT22;9762;52.490;13.410;2022-11-25T03:54:23;8.90;99.90
19256;DHT22;9762;52.490;13.410;2022-11-25T03:56:48;8.90;99.90
19256;DHT22;9762;52.490;13.410;2022-11-25T03:59:14;8.90;99.90
19256;DHT22;9762;52.490;13.410;2022-11-25T04:01:39;8.90;99.90
19256;DHT22;9762;52.490;13.410;2022-11-25T04:04:05;8.90;99.90
19256;DHT22;9762;52.490;13.410;2022-11-25T04:06:31;8.90;99.90
19256;DHT22;9762;52.490;13.410;2022-11-25T04:08:57;8.90;99.90
19256;DHT22;9762;52.490;13.410;2022-11-25T04:11:23;8.90;99.90
19256;DHT22;9762;52.490;13.410;2022-11-25T04:14:11;9.00;99.90
19256;DHT22;9762;52.490;13.410;2022-11-25T04:16:37;9.00;99.90
19256;DHT22;9762;52.490;13.410;2022-11-25T04:19:03;9.00;99.90
19256;DHT22;9762;52.490;13.410;2022-11-25T04:21:28;9.00;99.90
19256;DHT22;9762;52.490;13.410;2022-11-25T04:23:54;9.10;99.90
19256;DHT22;9762;52.490;13.410;2022-11-25T04:26:19;9.10;99.90
19256;DHT22;9762;52.490;13.410;2022-11-25T04:28:45;9.10;99.90
19256;DHT22;9762;52.490;13.410;2022-11-25T04:31:11;9.10;99.90
19256;DHT22;9762;52.490;13.410;2022-11-25T04:33:36;9.00;99.90
19256;DHT22;9762;52.490;13.410;2022-11-25T04:36:02;9.00;99.90
19256;DHT22;9762;52.490;13.410;2022-11-25T04:38:28;9.00;99.90
19256;DHT22;9762;52.490;13.410;2022-11-25T04:40:53;9.00;99.90
19256;DHT22;9762;52.490;13.410;2022-11-25T04:43:19;9.00;99.90
19256;DHT22;9762;52.490;13.410;2022-11-25T04:45:46;9.00;99.90
19256;DHT22;9762;52.490;13.410;2022-11-25T04:48:12;9.00;99.90
19256;DHT22;9762;52.490;13.410;2022-11-25T04:50:37;9.00;99.90
19256;DHT22;9762;52.490;13.410;2022-11-25T04:53:03;9.10;99.90
19256;DHT22;9762;52.490;13.410;2022-11-25T04:55:28;9.10;99.90
19256;DHT22;9762;52.490;13.410;2022-11-25T04:57:54;9.10;99.90
19256;DHT22;9762;52.490;13.410;2022-11-25T05:00:20;9.10;99.90
19256;DHT22;9762;52.490;13.410;2022-11-25T05:02:46;9.20;99.90
19256;DHT22;9762;52.490;13.410;2022-11-25T05:05:12;9.20;99.90
19256;DHT22;9762;52.490;13.410;2022-11-25T05:07:37;9.20;99.90
19256;DHT22;9762;52.490;13.410;2022-11-25T05:10:04;9.20;99.90
19256;DHT22;9762;52.490;13.410;2022-11-25T05:12:30;9.30;99.90
19256;DHT22;9762;52.490;13.410;2022-11-25T05:14:56;9.30;99.90
19256;DHT22;9762;52.490;13.410;2022-11-25T05:17:24;9.40;99.90
19256;DHT22;9762;52.490;13.410;2022-11-25T05:19:50;9.40;99.90
19256;DHT22;9762;52.490;13.410;2022-11-25T05:22:19;9.40;99.90
19256;DHT22;9762;52.490;13.410;2022-11-25T05:24:45;9.40;99.90
19256;DHT22;9762;52.490;13.410;2022-11-25T05:27:11;9.40;99.90
19256;DHT22;9762;52.490;13.410;2022-11-25T05:29:37;9.50;99.90
19256;DHT22;9762;52.490;13.410;2022-11-25T05:32:03;9.50;99.90
19256;DHT22;9762;52.490;13.410;2022-11-25T05:34:29;9.50;99.90
19256;DHT22;9762;52.490;13.410;2022-11-25T05:36:55;9.50;99.90
19256;DHT22;9762;52.490;13.410;2022-11-25T05:39:20;9.50;99.90
19256;DHT22;9762;52.490;13.410;2022-11-25T05:41:46;9.50;99.90
19256;DHT22;9762;52.490;13.410;2022-11-25T05:44:12;9.60;99.90
19256;DHT22;9762;52.490;13.410;2022-11-25T05:46:37;9.60;99.90
19256;DHT22;9762;52.490;13.410;2022-11-25T05:49:03;9.60;99.90
19256;DHT22;9762;52.490;13.410;2022-11-25T05:51:29;9.60;99.90
19256;DHT22;9762;52.490;13.410;2022-11-25T05:53:56;9.60;99.90
19256;DHT22;9762;52.490;13.410;2022-11-25T05:56:21;9.60;99.90
19256;DHT22;9762;52.490;13.410;2022-11-25T05:58:47;9.70;99.90
19256;DHT22;9762;52.490;13.410;2022-11-25T06:01:14;9.70;99.90
19256;DHT22;9762;52.490;13.410;2022-11-25T06:03:41;9.60;99.90
19256;DHT22;9762;52.490;13.410;2022-11-25T06:06:07;9.70;99.90
19256;DHT22;9762;52.490;13.410;2022-11-25T06:08:34;9.70;99.90
19256;DHT22;9762;52.490;13.410;2022-11-25T06:11:07;9.70;99.90
19256;DHT22;9762;52.490;13.410;2022-11-25T06:13:33;9.60;99.90
19256;DHT22;9762;52.490;13.410;2022-11-25T06:16:02;9.60;99.90
19256;DHT22;9762;52.490;13.410;2022-11-25T06:18:30;9.70;99.90
19256;DHT22;9762;52.490;13.410;2022-11-25T06:20:57;9.70;99.90
19256;DHT22;9762;52.490;13.410;2022-11-25T06:23:23;9.60;99.90
19256;DHT22;9762;52.490;13.410;2022-11-25T06:25:50;9.70;99.90
19256;DHT22;9762;52.490;13.410;2022-11-25T06:28:15;9.60;99.90
19256;DHT22;9762;52.490;13.410;2022-11-25T06:30:41;9.60;99.90
19256;DHT22;9762;52.490;13.410;2022-11-25T06:33:07;9.60;99.90
19256;DHT22;9762;52.490;13.410;2022-11-25T06:35:32;9.60;99.90
19256;DHT22;9762;52.490;13.410;2022-11-25T06:37:58;9.60;99.90
19256;DHT22;9762;52.490;13.410;2022-11-25T06:40:24;9.50;99.90
19256;DHT22;9762;52.490;13.410;2022-11-25T06:42:50;9.60;99.90
19256;DHT22;9762;52.490;13.410;2022-11-25T06:45:15;9.50;99.90
19256;DHT22;9762;52.490;13.410;2022-11-25T06:47:41;9.50;99.90
19256;DHT22;9762;52.490;13.410;2022-11-25T06:50:07;9.50;99.90
19256;DHT22;9762;52.490;13.410;2022-11-25T06:52:33;9.40;99.90
19256;DHT22;9762;52.490;13.410;2022-11-25T06:54:58;9.40;99.90
19256;DHT22;9762;52.490;13.410;2022-11-25T06:57:24;9.40;99.90
19256;DHT22;9762;52.490;13.410;2022-11-25T06:59:50;9.40;99.90
19256;DHT22;9762;52.490;13.410;2022-11-25T07:02:15;9.40;99.90
19256;DHT22;9762;52.490;13.410;2022-11-25T07:04:41;9.30;99.90
19256;DHT22;9762;52.490;13.410;2022-11-25T07:07:08;9.30;99.90
19256;DHT22;9762;52.490;13.410;2022-11-25T07:09:33;9.30;99.90
19256;DHT22;9762;52.490;13.410;2022-11-25T07:11:59;9.30;99.90
19256;DHT22;9762;52.490;13.410;2022-11-25T07:14:25;9.30;99.90
19256;DHT22;9762;52.490;13.410;2022-11-25T07:16:51;9.30;99.90
19256;DHT22;9762;52.490;13.410;2022-11-25T07:19:17;9.30;99.90
19256;DHT22;9762;52.490;13.410;2022-11-25T07:21:44;9.30;99.90
19256;DHT22;9762;52.490;13.410;2022-11-25T07:24:11;9.20;99.90
19256;DHT22;9762;52.490;13.410;2022-11-25T07:26:38;9.20;99.90
19256;DHT22;9762;52.490;13.410;2022-11-25T07:29:10;9.30;99.90
19256;DHT22;9762;52.490;13.410;2022-11-25T07:31:39;9.30;99.90
19256;DHT22;9762;52.490;13.410;2022-11-25T07:34:08;9.30;99.90
19256;DHT22;9762;52.490;13.410;2022-11-25T07:36:35;9.30;99.90
19256;DHT22;9762;52.490;13.410;2022-11-25T07:39:04;9.30;99.90
19256;DHT22;9762;52.490;13.410;2022-11-25T07:41:30;9.30;99.90
19256;DHT22;9762;52.490;13.410;2022-11-25T07:44:01;9.30;99.90
19256;DHT22;9762;52.490;13.410;2022-11-25T07:46:32;9.30;99.90
19256;DHT22;9762;52.490;13.410;2022-11-25T07:49:00;9.30;99.90
19256;DHT22;9762;52.490;13.410;2022-11-25T07:51:28;9.30;99.90
19256;DHT22;9762;52.490;13.410;2022-11-25T07:53:55;9.30;99.90
19256;DHT22;9762;52.490;13.410;2022-11-25T07:56:22;9.40;99.90
19256;DHT22;9762;52.490;13.410;2022-11-25T07:58:48;9.40;99.90
19256;DHT22;9762;52.490;13.410;2022-11-25T08:01:15;9.40;99.90
19256;DHT22;9762;52.490;13.410;2022-11-25T08:03:43;9.40;99.90
19256;DHT22;9762;52.490;13.410;2022-11-25T08:06:12;9.50;99.90
19256;DHT22;9762;52.490;13.410;2022-11-25T08:08:39;9.50;99.90
19256;DHT22;9762;52.490;13.410;2022-11-25T08:11:11;9.50;99.90
19256;DHT22;9762;52.490;13.410;2022-11-25T08:13:37;9.50;99.90
19256;DHT22;9762;52.490;13.410;2022-11-25T08:16:04;9.50;99.90
19256;DHT22;9762;52.490;13.410;2022-11-25T08:18:30;9.60;99.90
19256;DHT22;9762;52.490;13.410;2022-11-25T08:21:02;9.60;99.90
19256;DHT22;9762;52.490;13.410;2022-11-25T08:23:32;9.60;99.90
19256;DHT22;9762;52.490;13.410;2022-11-25T08:26:02;9.70;99.90
19256;DHT22;9762;52.490;13.410;2022-11-25T08:28:28;9.70;99.90
19256;DHT22;9762;52.490;13.410;2022-11-25T08:31:01;9.80;99.90
19256;DHT22;9762;52.490;13.410;2022-11-25T08:33:27;9.80;99.90
19256;DHT22;9762;52.490;13.410;2022-11-25T08:35:53;9.80;99.90
19256;DHT22;9762;52.490;13.410;2022-11-25T08:38:19;9.90;99.90
19256;DHT22;9762;52.490;13.410;2022-11-25T08:40:44;9.90;99.90
19256;DHT22;9762;52.490;13.410;2022-11-25T08:43:11;10.00;99.90
19256;DHT22;9762;52.490;13.410;2022-11-25T08:45:37;10.00;99.90
19256;DHT22;9762;52.490;13.410;2022-11-25T08:48:04;10.00;99.90
19256;DHT22;9762;52.490;13.410;2022-11-25T08:50:30;10.00;99.90
19256;DHT22;9762;52.490;13.410;2022-11-25T08:52:55;10.00;99.90
19256;DHT22;9762;52.490;13.410;2022-11-25T08:55:22;10.00;99.90
19256;DHT22;9762;52.490;13.410;2022-11-25T08:57:50;10.00;99.90
19256;DHT22;9762;52.490;13.410;2022-11-25T09:00:16;10.00;99.90
19256;DHT22;9762;52.490;13.410;2022-11-25T09:02:42;10.00;99.90
19256;DHT22;9762;52.490;13.410;2022-11-25T09:05:11;10.00;99.90
19256;DHT22;9762;52.490;13.410;2022-11-25T09:07:37;10.00;99.90
19256;DHT22;9762;52.490;13.410;2022-11-25T09:10:07;10.10;99.90
19256;DHT22;9762;52.490;13.410;2022-11-25T09:12:33;10.10;99.90
19256;DHT22;9762;52.490;13.410;2022-11-25T09:14:59;10.10;99.90
19256;DHT22;9762;52.490;13.410;2022-11-25T09:17:25;10.10;99.90
19256;DHT22;9762;52.490;13.410;2022-11-25T09:19:51;10.20;99.90
19256;DHT22;9762;52.490;13.410;2022-11-25T09:22:17;10.20;99.90
19256;DHT22;9762;52.490;13.410;2022-11-25T09:24:43;10.30;99.90
19256;DHT22;9762;52.490;13.410;2022-11-25T09:27:09;10.30;99.90
19256;DHT22;9762;52.490;13.410;2022-11-25T09:29:35;10.40;99.90
19256;DHT22;9762;52.490;13.410;2022-11-25T09:32:01;10.40;99.90
19256;DHT22;9762;52.490;13.410;2022-11-25T09:34:27;10.40;99.90
19256;DHT22;9762;52.490;13.410;2022-11-25T09:36:53;10.50;99.90
19256;DHT22;9762;52.490;13.410;2022-11-25T09:39:18;10.50;99.90
19256;DHT22;9762;52.490;13.410;2022-11-25T09:51:19;10.70;99.60
19256;DHT22;9762;52.490;13.410;2022-11-25T09:54:02;10.80;99.60
19256;DHT22;9762;52.490;13.410;2022-11-25T09:56:41;10.80;99.60
19256;DHT22;9762;52.490;13.410;2022-11-25T09:59:28;10.90;99.40
19256;DHT22;9762;52.490;13.410;2022-11-25T10:02:19;10.90;99.40
19256;DHT22;9762;52.490;13.410;2022-11-25T10:04:50;11.00;99.60
19256;DHT22;9762;52.490;13.410;2022-11-25T10:07:25;11.10;99.50
19256;DHT22;9762;52.490;13.410;2022-11-25T10:09:55;11.20;99.40
19256;DHT22;9762;52.490;13.410;2022-11-25T10:12:28;11.30;99.40
19256;DHT22;9762;52.490;13.410;2022-11-25T10:15:00;11.30;99.10
19256;DHT22;9762;52.490;13.410;2022-11-25T10:17:45;11.30;98.70
19256;DHT22;9762;52.490;13.410;2022-11-25T10:20:29;11.30;98.70
19256;DHT22;9762;52.490;13.410;2022-11-25T10:23:02;11.30;98.40
19256;DHT22;9762;52.490;13.410;2022-11-25T10:25:41;11.30;98.30
19256;DHT22;9762;52.490;13.410;2022-11-25T10:28:21;11.40;98.20
19256;DHT22;9762;52.490;13.410;2022-11-25T10:34:01;11.40;98.20
19256;DHT22;9762;52.490;13.410;2022-11-25T10:36:38;11.40;98.10
19256;DHT22;9762;52.490;13.410;2022-11-25T10:39:18;11.40;98.10
19256;DHT22;9762;52.490;13.410;2022-11-25T10:44:32;11.40;98.10
19256;DHT22;9762;52.490;13.410;2022-11-25T10:47:20;11.50;98.00
19256;DHT22;9762;52.490;13.410;2022-11-25T10:53:12;11.40;97.90
19256;DHT22;9762;52.490;13.410;2022-11-25T10:56:02;11.50;98.00
19256;DHT22;9762;52.490;13.410;2022-11-25T10:58:33;11.50;97.90
19256;DHT22;9762;52.490;13.410;2022-11-25T11:01:04;11.50;98.20
19256;DHT22;9762;52.490;13.410;2022-11-25T11:03:31;11.60;97.80
19256;DHT22;9762;52.490;13.410;2022-11-25T11:05:56;11.50;97.70
19256;DHT22;9762;52.490;13.410;2022-11-25T11:08:42;11.60;97.80
19256;DHT22;9762;52.490;13.410;2022-11-25T11:11:18;11.60;97.90
19256;DHT22;9762;52.490;13.410;2022-11-25T11:13:45;11.60;98.00
19256;DHT22;9762;52.490;13.410;2022-11-25T11:16:27;11.60;98.00
19256;DHT22;9762;52.490;13.410;2022-11-25T11:18:54;11.60;98.00
19256;DHT22;9762;52.490;13.410;2022-11-25T11:21:24;11.70;98.10
19256;DHT22;9762;52.490;13.410;2022-11-25T11:23:54;11.80;98.00
19256;DHT22;9762;52.490;13.410;2022-11-25T11:26:30;11.80;97.80
19256;DHT22;9762;52.490;13.410;2022-11-25T11:29:15;11.90;97.80
19256;DHT22;9762;52.490;13.410;2022-11-25T11:31:56;12.00;98.10
19256;DHT22;9762;52.490;13.410;2022-11-25T11:34:38;12.00;97.80
19256;DHT22;9762;52.490;13.410;2022-11-25T11:48:09;12.40;97.20
19256;DHT22;9762;52.490;13.410;2022-11-25T11:50:42;12.40;97.10
19256;DHT22;9762;52.490;13.410;2022-11-25T11:56:24;12.40;96.90
19256;DHT22;9762;52.490;13.410;2022-11-25T11:59:07;12.40;96.90
19256;DHT22;9762;52.490;13.410;2022-11-25T12:07:06;12.30;96.90
19256;DHT22;9762;52.490;13.410;2022-11-25T12:09:39;12.30;96.90
19256;DHT22;9762;52.490;13.410;2022-11-25T12:12:13;12.30;97.20
19256;DHT22;9762;52.490;13.410;2022-11-25T12:14:41;12.30;96.80
19256;DHT22;9762;52.490;13.410;2022-11-25T12:17:22;12.30;96.90
19256;DHT22;9762;52.490;13.410;2022-11-25T12:22:39;12.20;96.90
19256;DHT22;9762;52.490;13.410;2022-11-25T12:30:11;12.20;96.90
19256;DHT22;9762;52.490;13.410;2022-11-25T12:40:19;12.10;97.10
19256;DHT22;9762;52.490;13.410;2022-11-25T12:42:47;12.10;97.10
19256;DHT22;9762;52.490;13.410;2022-11-25T12:47:45;12.10;97.20
19256;DHT22;9762;52.490;13.410;2022-11-25T12:50:22;12.00;97.20
19256;DHT22;9762;52.490;13.410;2022-11-25T12:55:47;12.10;97.20
19256;DHT22;9762;52.490;13.410;2022-11-25T13:01:08;12.10;97.30
19256;DHT22;9762;52.490;13.410;2022-11-25T13:04:05;12.10;97.30
19256;DHT22;9762;52.490;13.410;2022-11-25T13:12:39;12.10;97.60
19256;DHT22;9762;52.490;13.410;2022-11-25T13:17:49;12.10;97.70
19256;DHT22;9762;52.490;13.410;2022-11-25T13:25:42;12.00;97.50
19256;DHT22;9762;52.490;13.410;2022-11-25T13:28:35;12.00;97.60
19256;DHT22;9762;52.490;13.410;2022-11-25T13:31:17;11.90;97.70
19256;DHT22;9762;52.490;13.410;2022-11-25T13:36:20;11.90;97.80
19256;DHT22;9762;52.490;13.410;2022-11-25T13:43:57;11.80;97.90
19256;DHT22;9762;52.490;13.410;2022-11-25T13:46:43;11.80;98.00
19256;DHT22;9762;52.490;13.410;2022-11-25T13:54:49;11.70;98.40
19256;DHT22;9762;52.490;13.410;2022-11-25T13:57:28;11.60;98.50
19256;DHT22;9762;52.490;13.410;2022-11-25T14:02:44;11.50;98.70
19256;DHT22;9762;52.490;13.410;2022-11-25T14:06:12;11.50;98.60
19256;DHT22;9762;52.490;13.410;2022-11-25T14:08:19;11.50;98.60
19256;DHT22;9762;52.490;13.410;2022-11-25T14:11:02;11.50;98.60
19256;DHT22;9762;52.490;13.410;2022-11-25T14:24:27;11.40;99.10
19256;DHT22;9762;52.490;13.410;2022-11-25T14:26:56;11.50;99.20
19256;DHT22;9762;52.490;13.410;2022-11-25T14:29:36;11.50;99.20
19256;DHT22;9762;52.490;13.410;2022-11-25T14:32:54;11.40;99.40
19256;DHT22;9762;52.490;13.410;2022-11-25T14:35:09;11.40;99.50
19256;DHT22;9762;52.490;13.410;2022-11-25T14:40:09;11.40;99.50
19256;DHT22;9762;52.490;13.410;2022-11-25T14:42:42;11.40;99.50
19256;DHT22;9762;52.490;13.410;2022-11-25T14:45:34;11.40;99.50
19256;DHT22;9762;52.490;13.410;2022-11-25T14:48:17;11.40;99.60
19256;DHT22;9762;52.490;13.410;2022-11-25T14:50:58;11.30;99.70
19256;DHT22;9762;52.490;13.410;2022-11-25T14:53:24;11.30;99.70
19256;DHT22;9762;52.490;13.410;2022-11-25T14:55:51;11.30;99.70
19256;DHT22;9762;52.490;13.410;2022-11-25T14:58:17;11.30;99.70
19256;DHT22;9762;52.490;13.410;2022-11-25T15:01:03;11.30;99.70
19256;DHT22;9762;52.490;13.410;2022-11-25T15:03:29;11.30;99.80
19256;DHT22;9762;52.490;13.410;2022-11-25T15:06:00;11.30;99.70
19256;DHT22;9762;52.490;13.410;2022-11-25T15:08:26;11.30;99.80
19256;DHT22;9762;52.490;13.410;2022-11-25T15:10:56;11.30;99.90
19256;DHT22;9762;52.490;13.410;2022-11-25T15:15:54;11.30;99.90
19256;DHT22;9762;52.490;13.410;2022-11-25T15:18:23;11.30;99.90
19256;DHT22;9762;52.490;13.410;2022-11-25T15:20:54;11.40;99.90
19256;DHT22;9762;52.490;13.410;2022-11-25T15:23:32;11.40;99.90
19256;DHT22;9762;52.490;13.410;2022-11-25T15:26:02;11.40;99.90
19256;DHT22;9762;52.490;13.410;2022-11-25T15:28:35;11.40;99.90
19256;DHT22;9762;52.490;13.410;2022-11-25T15:31:07;11.40;99.90
19256;DHT22;9762;52.490;13.410;2022-11-25T15:33:33;11.40;99.90
19256;DHT22;9762;52.490;13.410;2022-11-25T15:36:00;11.40;99.90
19256;DHT22;9762;52.490;13.410;2022-11-25T15:38:43;11.40;99.90
19256;DHT22;9762;52.490;13.410;2022-11-25T15:41:18;11.40;99.90
19256;DHT22;9762;52.490;13.410;2022-11-25T15:43:47;11.40;99.90
19256;DHT22;9762;52.490;13.410;2022-11-25T15:46:14;11.40;99.90
19256;DHT22;9762;52.490;13.410;2022-11-25T15:48:48;11.40;99.90
19256;DHT22;9762;52.490;13.410;2022-11-25T15:56:42;11.40;99.90
19256;DHT22;9762;52.490;13.410;2022-11-25T15:59:37;11.40;99.90
19256;DHT22;9762;52.490;13.410;2022-11-25T16:02:34;11.40;99.90
19256;DHT22;9762;52.490;13.410;2022-11-25T16:10:29;11.30;99.90
19256;DHT22;9762;52.490;13.410;2022-11-25T16:21:07;11.30;99.90
19256;DHT22;9762;52.490;13.410;2022-11-25T16:23:34;11.20;99.90
19256;DHT22;9762;52.490;13.410;2022-11-25T16:26:17;11.20;99.90
19256;DHT22;9762;52.490;13.410;2022-11-25T16:28:51;11.20;99.90
19256;DHT22;9762;52.490;13.410;2022-11-25T16:31:18;11.20;99.90
19256;DHT22;9762;52.490;13.410;2022-11-25T16:33:43;11.20;99.90
19256;DHT22;9762;52.490;13.410;2022-11-25T16:36:09;11.20;99.90
19256;DHT22;9762;52.490;13.410;2022-11-25T16:38:34;11.20;99.90
19256;DHT22;9762;52.490;13.410;2022-11-25T16:41:08;11.20;99.90
19256;DHT22;9762;52.490;13.410;2022-11-25T16:43:35;11.30;99.90
19256;DHT22;9762;52.490;13.410;2022-11-25T16:46:04;11.20;99.90
19256;DHT22;9762;52.490;13.410;2022-11-25T16:48:30;11.20;99.90
19256;DHT22;9762;52.490;13.410;2022-11-25T16:50:56;11.20;99.90
19256;DHT22;9762;52.490;13.410;2022-11-25T16:53:22;11.20;99.90
19256;DHT22;9762;52.490;13.410;2022-11-25T16:55:47;11.20;99.90
19256;DHT22;9762;52.490;13.410;2022-11-25T16:58:23;11.20;99.90
19256;DHT22;9762;52.490;13.410;2022-11-25T17:00:54;11.20;99.90
19256;DHT22;9762;52.490;13.410;2022-11-25T17:03:22;11.20;99.90
19256;DHT22;9762;52.490;13.410;2022-11-25T17:05:53;11.20;99.90
19256;DHT22;9762;52.490;13.410;2022-11-25T17:08:20;11.20;99.90
19256;DHT22;9762;52.490;13.410;2022-11-25T17:10:46;11.20;99.90
19256;DHT22;9762;52.490;13.410;2022-11-25T17:13:20;11.20;99.90
19256;DHT22;9762;52.490;13.410;2022-11-25T17:15:48;11.20;99.90
19256;DHT22;9762;52.490;13.410;2022-11-25T17:18:14;11.30;99.90
19256;DHT22;9762;52.490;13.410;2022-11-25T17:20:42;11.30;99.90
19256;DHT22;9762;52.490;13.410;2022-11-25T17:23:16;11.30;99.90
19256;DHT22;9762;52.490;13.410;2022-11-25T17:25:45;11.30;99.90
19256;DHT22;9762;52.490;13.410;2022-11-25T17:28:14;11.20;99.90
19256;DHT22;9762;52.490;13.410;2022-11-25T17:30:42;11.20;99.90
19256;DHT22;9762;52.490;13.410;2022-11-25T17:33:18;11.20;99.90
19256;DHT22;9762;52.490;13.410;2022-11-25T17:35:44;11.20;99.90
19256;DHT22;9762;52.490;13.410;2022-11-25T17:38:19;11.20;99.90
19256;DHT22;9762;52.490;13.410;2022-11-25T17:40:45;11.20;99.90
19256;DHT22;9762;52.490;13.410;2022-11-25T17:43:17;11.30;99.90
19256;DHT22;9762;52.490;13.410;2022-11-25T17:45:44;11.30;99.90
19256;DHT22;9762;52.490;13.410;2022-11-25T17:48:15;11.30;99.90
19256;DHT22;9762;52.490;13.410;2022-11-25T17:50:41;11.30;99.90
19256;DHT22;9762;52.490;13.410;2022-11-25T17:53:08;11.30;99.90
19256;DHT22;9762;52.490;13.410;2022-11-25T17:55:35;11.30;99.90
19256;DHT22;9762;52.490;13.410;2022-11-25T17:58:02;11.30;99.90
19256;DHT22;9762;52.490;13.410;2022-11-25T18:00:28;11.30;99.90
19256;DHT22;9762;52.490;13.410;2022-11-25T18:02:53;11.30;99.90
19256;DHT22;9762;52.490;13.410;2022-11-25T18:05:21;11.30;99.90
19256;DHT22;9762;52.490;13.410;2022-11-25T18:07:47;11.40;99.90
19256;DHT22;9762;52.490;13.410;2022-11-25T18:10:16;11.40;99.90
19256;DHT22;9762;52.490;13.410;2022-11-25T18:12:43;11.40;99.90